createdAt,value
2019-03-10T00:00:15.509Z,1001.75
2019-03-10T00:01:15.502Z,1001.73
2019-03-10T00:02:15.496Z,1001.68
2019-03-10T00:03:15.500Z,1001.55
2019-03-10T00:04:15.473Z,1001.77
2019-03-10T00:05:15.459Z,1001.74
2019-03-10T00:06:15.453Z,1001.63
2019-03-10T00:07:15.433Z,1001.65
2019-03-10T00:08:15.417Z,1001.76
2019-03-10T00:09:15.415Z,1001.82
2019-03-10T00:10:15.406Z,1001.75
2019-03-10T00:11:15.395Z,1001.67
2019-03-10T00:12:15.410Z,1001.73
2019-03-10T00:13:15.368Z,1001.64
2019-03-10T00:14:15.361Z,1001.80
2019-03-10T00:15:15.341Z,1001.82
2019-03-10T00:16:15.340Z,1001.74
2019-03-10T00:17:15.327Z,1001.72
2019-03-10T00:18:15.334Z,1001.77
2019-03-10T00:19:15.298Z,1001.74
2019-03-10T00:20:15.290Z,1001.66
2019-03-10T00:21:15.275Z,1001.78
2019-03-10T00:22:15.307Z,1001.81
2019-03-10T00:23:15.321Z,1001.75
2019-03-10T00:24:15.253Z,1001.79
2019-03-10T00:25:15.242Z,1001.83
2019-03-10T00:26:15.249Z,1001.79
2019-03-10T00:27:15.214Z,1001.65
2019-03-10T00:28:15.213Z,1001.85
2019-03-10T00:29:15.220Z,1001.89
2019-03-10T00:30:15.184Z,1001.81
2019-03-10T00:31:15.176Z,1001.76
2019-03-10T00:32:15.166Z,1001.78
2019-03-10T00:33:15.155Z,1001.71
2019-03-10T00:34:16.746Z,1001.80
2019-03-10T00:35:15.136Z,1001.84
2019-03-10T00:36:15.119Z,1001.85
2019-03-10T00:37:15.104Z,1001.67
2019-03-10T00:38:15.104Z,1001.88
2019-03-10T00:39:15.081Z,1001.84
2019-03-10T00:40:15.080Z,1001.94
2019-03-10T00:41:15.064Z,1001.92
2019-03-10T00:42:15.052Z,1001.94
2019-03-10T00:43:15.036Z,1001.95
2019-03-10T00:44:15.076Z,1002.07
2019-03-10T00:45:15.024Z,1001.94
2019-03-10T00:46:15.115Z,1002.02
2019-03-10T00:47:15.003Z,1001.98
2019-03-10T00:48:15.013Z,1002.00
2019-03-10T00:49:14.989Z,1001.95
2019-03-10T00:50:14.982Z,1002.10
2019-03-10T00:51:14.957Z,1002.09
2019-03-10T00:52:14.942Z,1002.00
2019-03-10T00:53:14.936Z,1001.98
2019-03-10T00:54:14.965Z,1001.89
2019-03-10T00:55:14.912Z,1001.82
2019-03-10T00:56:14.899Z,1001.89
2019-03-10T00:57:14.889Z,1001.90
2019-03-10T00:58:14.874Z,1001.93
2019-03-10T00:59:14.870Z,1001.98
2019-03-10T01:00:14.862Z,1001.86
2019-03-10T01:01:14.842Z,1001.85
2019-03-10T01:02:14.872Z,1001.91
2019-03-10T01:03:14.844Z,1001.89
2019-03-10T01:04:14.835Z,1001.86
2019-03-10T01:05:14.801Z,1001.88
2019-03-10T01:06:14.788Z,1001.93
2019-03-10T01:07:14.785Z,1001.95
2019-03-10T01:08:14.803Z,1001.89
2019-03-10T01:09:14.778Z,1001.96
2019-03-10T01:10:14.766Z,1001.93
2019-03-10T01:11:14.733Z,1001.81
2019-03-10T01:12:14.728Z,1001.79
2019-03-10T01:13:14.716Z,1001.87
2019-03-10T01:14:14.735Z,1001.80
2019-03-10T01:15:14.693Z,1001.75
2019-03-10T01:16:14.710Z,1001.77
2019-03-10T01:17:14.682Z,1001.80
2019-03-10T01:18:14.657Z,1001.73
2019-03-10T01:19:14.671Z,1001.79
2019-03-10T01:20:14.637Z,1001.82
2019-03-10T01:21:14.634Z,1001.73
2019-03-10T01:22:14.613Z,1001.83
2019-03-10T01:23:14.608Z,1001.67
2019-03-10T01:24:14.599Z,1001.70
2019-03-10T01:25:14.600Z,1001.78
2019-03-10T01:26:14.581Z,1001.77
2019-03-10T01:27:14.564Z,1001.75
2019-03-10T01:28:14.549Z,1001.74
2019-03-10T01:29:14.548Z,1001.72
2019-03-10T01:30:14.538Z,1001.70
2019-03-10T01:31:14.525Z,1001.71
2019-03-10T01:32:14.506Z,1001.66
2019-03-10T01:33:14.498Z,1001.67
2019-03-10T01:34:14.487Z,1001.67
2019-03-10T01:35:14.486Z,1001.68
2019-03-10T01:36:14.475Z,1001.65
2019-03-10T01:37:14.502Z,1001.54
2019-03-10T01:38:14.449Z,1001.58
2019-03-10T01:39:14.446Z,1001.62
2019-03-10T01:40:14.459Z,1001.61
2019-03-10T01:41:14.412Z,1001.55
2019-03-10T01:42:14.402Z,1001.57
2019-03-10T01:43:14.393Z,1001.65
2019-03-10T01:44:14.379Z,1001.43
2019-03-10T01:45:14.381Z,1001.46
2019-03-10T01:46:14.396Z,1001.50
2019-03-10T01:47:14.347Z,1001.38
2019-03-10T01:48:14.335Z,1001.41
2019-03-10T01:49:14.321Z,1001.43
2019-03-10T01:50:14.311Z,1001.47
2019-03-10T01:51:14.310Z,1001.35
2019-03-10T01:52:14.318Z,1001.33
2019-03-10T01:53:14.278Z,1001.43
2019-03-10T01:54:14.352Z,1001.34
2019-03-10T01:55:14.256Z,1001.39
2019-03-10T01:56:14.256Z,1001.50
2019-03-10T01:57:14.238Z,1001.44
2019-03-10T01:58:14.264Z,1001.47
2019-03-10T01:59:14.215Z,1001.49
2019-03-10T02:00:14.217Z,1001.39
2019-03-10T02:01:14.193Z,1001.43
2019-03-10T02:02:14.211Z,1001.44
2019-03-10T02:03:14.174Z,1001.43
2019-03-10T02:04:14.169Z,1001.43
2019-03-10T02:05:14.162Z,1001.47
2019-03-10T02:06:14.142Z,1001.44
2019-03-10T02:07:14.141Z,1001.47
2019-03-10T02:08:14.116Z,1001.45
2019-03-10T02:09:14.104Z,1001.43
2019-03-10T02:10:14.143Z,1001.42
2019-03-10T02:11:14.089Z,1001.40
2019-03-10T02:12:14.076Z,1001.45
2019-03-10T02:13:14.060Z,1001.41
2019-03-10T02:14:14.055Z,1001.35
2019-03-10T02:15:14.051Z,1001.40
2019-03-10T02:16:14.042Z,1001.49
2019-03-10T02:17:14.023Z,1001.46
2019-03-10T02:18:14.014Z,1001.43
2019-03-10T02:19:14.102Z,1001.40
2019-03-10T02:20:13.990Z,1001.30
2019-03-10T02:21:13.987Z,1001.32
2019-03-10T02:22:13.964Z,1001.33
2019-03-10T02:23:13.955Z,1001.34
2019-03-10T02:24:23.399Z,1001.36
2019-03-10T02:25:14.937Z,1001.38
2019-03-10T02:26:13.938Z,1001.34
2019-03-10T02:27:13.928Z,1001.25
2019-03-10T02:28:13.898Z,1001.30
2019-03-10T02:29:13.888Z,1001.38
2019-03-10T02:30:13.885Z,1001.31
2019-03-10T02:31:13.879Z,1001.32
2019-03-10T02:32:13.866Z,1001.35
2019-03-10T02:33:13.853Z,1001.38
2019-03-10T02:34:13.834Z,1001.30
2019-03-10T02:35:13.829Z,1001.33
2019-03-10T02:36:13.823Z,1001.36
2019-03-10T02:37:13.832Z,1001.34
2019-03-10T02:38:13.808Z,1001.30
2019-03-10T02:39:13.781Z,1001.33
2019-03-10T02:40:14.642Z,1001.26
2019-03-10T02:41:15.659Z,1001.31
2019-03-10T02:42:14.647Z,1001.29
2019-03-10T02:43:13.746Z,1001.29
2019-03-10T02:44:13.726Z,1001.24
2019-03-10T02:45:13.718Z,1001.32
2019-03-10T02:46:13.704Z,1001.24
2019-03-10T02:47:13.707Z,1001.23
2019-03-10T02:48:13.684Z,1001.23
2019-03-10T02:49:13.673Z,1001.23
2019-03-10T02:50:13.665Z,1001.15
2019-03-10T02:51:13.650Z,1001.10
2019-03-10T02:52:13.650Z,1001.12
2019-03-10T02:53:13.628Z,1001.11
2019-03-10T02:54:13.624Z,1001.12
2019-03-10T02:55:13.607Z,1001.05
2019-03-10T02:56:13.606Z,1000.98
2019-03-10T02:57:13.605Z,1001.04
2019-03-10T02:58:13.586Z,1001.06
2019-03-10T02:59:13.574Z,1001.08
2019-03-10T03:00:13.564Z,1001.07
2019-03-10T03:01:13.572Z,1001.02
2019-03-10T03:02:13.537Z,1000.99
2019-03-10T03:03:13.564Z,1000.94
2019-03-10T03:04:13.508Z,1000.99
2019-03-10T03:05:13.498Z,1000.94
2019-03-10T03:06:13.496Z,1001.01
2019-03-10T03:07:13.485Z,1000.94
2019-03-10T03:08:16.649Z,1000.94
2019-03-10T03:09:13.483Z,1000.85
2019-03-10T03:10:13.445Z,1000.86
2019-03-10T03:11:13.435Z,1000.82
2019-03-10T03:12:13.427Z,1000.82
2019-03-10T03:13:13.410Z,1000.77
2019-03-10T03:14:13.418Z,1000.75
2019-03-10T03:15:13.395Z,1000.80
2019-03-10T03:16:13.437Z,1000.74
2019-03-10T03:17:13.384Z,1000.75
2019-03-10T03:18:13.361Z,1000.70
2019-03-10T03:19:13.360Z,1000.73
2019-03-10T03:20:13.346Z,1000.70
2019-03-10T03:21:13.332Z,1000.67
2019-03-10T03:22:13.314Z,1000.66
2019-03-10T03:23:13.310Z,1000.65
2019-03-10T03:24:13.308Z,1000.64
2019-03-10T03:25:13.286Z,1000.67
2019-03-10T03:26:13.275Z,1000.65
2019-03-10T03:27:13.264Z,1000.63
2019-03-10T03:28:13.261Z,1000.64
2019-03-10T03:29:13.273Z,1000.57
2019-03-10T03:30:13.229Z,1000.60
2019-03-10T03:31:13.271Z,1000.53
2019-03-10T03:32:13.207Z,1000.50
2019-03-10T03:33:13.197Z,1000.47
2019-03-10T03:34:13.189Z,1000.49
2019-03-10T03:35:13.194Z,1000.41
2019-03-10T03:36:13.166Z,1000.53
2019-03-10T03:37:13.178Z,1000.55
2019-03-10T03:38:13.151Z,1000.54
2019-03-10T03:39:13.132Z,1000.60
2019-03-10T03:40:13.139Z,1000.61
2019-03-10T03:41:13.145Z,1000.55
2019-03-10T03:42:13.098Z,1000.61
2019-03-10T03:43:13.090Z,1000.61
2019-03-10T03:44:13.079Z,1000.63
2019-03-10T03:45:13.070Z,1000.63
2019-03-10T03:46:13.059Z,1000.62
2019-03-10T03:47:13.051Z,1000.58
2019-03-10T03:48:13.038Z,1000.61
2019-03-10T03:49:13.025Z,1000.62
2019-03-10T03:50:13.011Z,1000.64
2019-03-10T03:51:13.006Z,1000.57
2019-03-10T03:52:13.049Z,1000.58
2019-03-10T03:53:12.984Z,1000.55
2019-03-10T03:54:12.976Z,1000.61
2019-03-10T03:55:12.957Z,1000.64
2019-03-10T03:56:12.944Z,1000.62
2019-03-10T03:57:12.943Z,1000.62
2019-03-10T03:58:12.934Z,1000.70
2019-03-10T03:59:12.916Z,1000.62
2019-03-10T04:00:12.929Z,1000.58
2019-03-10T04:01:12.892Z,1000.54
2019-03-10T04:02:12.891Z,1000.59
2019-03-10T04:03:12.879Z,1000.58
2019-03-10T04:04:12.871Z,1000.51
2019-03-10T04:05:12.855Z,1000.63
2019-03-10T04:06:12.837Z,1000.62
2019-03-10T04:07:12.831Z,1000.61
2019-03-10T04:08:12.952Z,1000.62
2019-03-10T04:09:12.803Z,1000.63
2019-03-10T04:10:12.793Z,1000.67
2019-03-10T04:11:12.799Z,1000.69
2019-03-10T04:12:12.807Z,1000.66
2019-03-10T04:13:12.804Z,1000.71
2019-03-10T04:14:13.633Z,1000.69
2019-03-10T04:15:12.744Z,1000.69
2019-03-10T04:16:12.743Z,1000.65
2019-03-10T04:17:12.728Z,1000.68
2019-03-10T04:18:12.716Z,1000.66
2019-03-10T04:19:12.711Z,1000.72
2019-03-10T04:20:12.703Z,1000.63
2019-03-10T04:21:12.675Z,1000.63
2019-03-10T04:22:12.664Z,1000.57
2019-03-10T04:23:12.663Z,1000.57
2019-03-10T04:24:12.666Z,1000.53
2019-03-10T04:25:12.646Z,1000.58
2019-03-10T04:26:12.625Z,1000.62
2019-03-10T04:27:12.617Z,1000.59
2019-03-10T04:28:12.603Z,1000.54
2019-03-10T04:29:12.602Z,1000.57
2019-03-10T04:30:12.624Z,1000.54
2019-03-10T04:31:12.565Z,1000.60
2019-03-10T04:32:12.560Z,1000.61
2019-03-10T04:33:12.548Z,1000.58
2019-03-10T04:34:12.537Z,1000.55
2019-03-10T04:35:12.530Z,1000.54
2019-03-10T04:36:12.527Z,1000.58
2019-03-10T04:37:12.503Z,1000.50
2019-03-10T04:38:12.495Z,1000.52
2019-03-10T04:39:12.475Z,1000.54
2019-03-10T04:40:12.468Z,1000.60
2019-03-10T04:41:12.497Z,1000.62
2019-03-10T04:42:12.444Z,1000.67
2019-03-10T04:43:12.441Z,1000.61
2019-03-10T04:44:12.426Z,1000.66
2019-03-10T04:45:12.421Z,1000.64
2019-03-10T04:46:12.407Z,1000.67
2019-03-10T04:47:12.395Z,1000.57
2019-03-10T04:48:12.384Z,1000.57
2019-03-10T04:49:12.371Z,1000.56
2019-03-10T04:50:12.382Z,1000.52
2019-03-10T04:51:12.356Z,1000.54
2019-03-10T04:52:12.342Z,1000.55
2019-03-10T04:53:12.323Z,1000.58
2019-03-10T04:54:12.313Z,1000.58
2019-03-10T04:55:12.307Z,1000.53
2019-03-10T04:56:12.296Z,1000.52
2019-03-10T04:57:12.296Z,1000.56
2019-03-10T04:58:12.290Z,1000.62
2019-03-10T04:59:12.263Z,1000.64
2019-03-10T05:00:12.255Z,1000.67
2019-03-10T05:01:12.242Z,1000.51
2019-03-10T05:02:12.235Z,1000.53
2019-03-10T05:03:12.215Z,1000.59
2019-03-10T05:04:12.204Z,1000.50
2019-03-10T05:05:12.199Z,1000.63
2019-03-10T05:06:12.190Z,1000.58
2019-03-10T05:07:12.229Z,1000.60
2019-03-10T05:08:12.161Z,1000.62
2019-03-10T05:09:12.155Z,1000.62
2019-03-10T05:10:12.150Z,1000.61
2019-03-10T05:11:12.133Z,1000.67
2019-03-10T05:12:12.126Z,1000.65
2019-03-10T05:13:12.126Z,1000.68
2019-03-10T05:14:12.104Z,1000.65
2019-03-10T05:15:12.086Z,1000.71
2019-03-10T05:16:12.082Z,1000.67
2019-03-10T05:17:12.082Z,1000.74
2019-03-10T05:18:12.069Z,1000.65
2019-03-10T05:19:12.060Z,1000.69
2019-03-10T05:20:12.037Z,1000.66
2019-03-10T05:21:12.040Z,1000.64
2019-03-10T05:22:12.597Z,1000.62
2019-03-10T05:23:12.588Z,1000.57
2019-03-10T05:24:12.596Z,1000.54
2019-03-10T05:25:13.613Z,1000.54
2019-03-10T05:26:13.609Z,1000.53
2019-03-10T05:27:11.956Z,1000.52
2019-03-10T05:28:11.950Z,1000.56
2019-03-10T05:29:11.939Z,1000.54
2019-03-10T05:30:11.924Z,1000.50
2019-03-10T05:31:11.921Z,1000.53
2019-03-10T05:32:11.917Z,1000.59
2019-03-10T05:33:11.900Z,1000.53
2019-03-10T05:34:11.882Z,1000.59
2019-03-10T05:35:11.898Z,1000.59
2019-03-10T05:36:11.866Z,1000.60
2019-03-10T05:37:11.862Z,1000.64
2019-03-10T05:38:11.839Z,1000.57
2019-03-10T05:39:11.831Z,1000.62
2019-03-10T05:40:11.815Z,1000.66
2019-03-10T05:41:11.805Z,1000.71
2019-03-10T05:42:12.099Z,1000.59
2019-03-10T05:43:11.822Z,1000.60
2019-03-10T05:44:11.794Z,1000.58
2019-03-10T05:45:11.768Z,1000.56
2019-03-10T05:46:11.792Z,1000.47
2019-03-10T05:47:11.745Z,1000.45
2019-03-10T05:48:11.734Z,1000.35
2019-03-10T05:49:11.719Z,1000.42
2019-03-10T05:50:11.713Z,1000.36
2019-03-10T05:51:11.697Z,1000.34
2019-03-10T05:52:11.701Z,1000.27
2019-03-10T05:53:11.681Z,1000.36
2019-03-10T05:54:11.670Z,1000.39
2019-03-10T05:55:11.659Z,1000.37
2019-03-10T05:56:11.653Z,1000.35
2019-03-10T05:57:11.639Z,1000.27
2019-03-10T05:58:11.633Z,1000.25
2019-03-10T05:59:11.615Z,1000.24
2019-03-10T06:00:11.606Z,1000.23
2019-03-10T06:01:11.589Z,1000.31
2019-03-10T06:02:11.576Z,1000.24
2019-03-10T06:03:11.574Z,1000.23
2019-03-10T06:04:11.602Z,1000.20
2019-03-10T06:05:11.551Z,1000.21
2019-03-10T06:06:11.533Z,1000.20
2019-03-10T06:07:11.535Z,1000.14
2019-03-10T06:08:11.513Z,1000.14
2019-03-10T06:09:11.517Z,1000.09
2019-03-10T06:10:11.491Z,1000.15
2019-03-10T06:11:11.502Z,1000.09
2019-03-10T06:12:12.078Z,1000.11
2019-03-10T06:13:12.102Z,1000.05
2019-03-10T06:14:11.450Z,1000.07
2019-03-10T06:15:11.439Z,1000.07
2019-03-10T06:16:11.434Z,1000.01
2019-03-10T06:17:11.419Z,1000.13
2019-03-10T06:18:13.841Z,1000.06
2019-03-10T06:19:11.403Z,1000.09
2019-03-10T06:20:11.391Z,999.91
2019-03-10T06:21:11.376Z,999.96
2019-03-10T06:22:11.365Z,999.91
2019-03-10T06:23:11.356Z,999.91
2019-03-10T06:24:11.349Z,999.93
2019-03-10T06:25:11.339Z,999.94
2019-03-10T06:26:11.322Z,999.93
2019-03-10T06:27:11.310Z,999.91
2019-03-10T06:28:11.303Z,999.80
2019-03-10T06:29:11.284Z,999.78
2019-03-10T06:30:11.289Z,999.86
2019-03-10T06:31:11.276Z,999.85
2019-03-10T06:32:11.256Z,999.78
2019-03-10T06:33:11.247Z,999.88
2019-03-10T06:34:11.253Z,999.91
2019-03-10T06:35:11.243Z,999.92
2019-03-10T06:36:11.208Z,999.86
2019-03-10T06:37:11.198Z,999.89
2019-03-10T06:38:11.186Z,999.98
2019-03-10T06:39:11.182Z,1000.01
2019-03-10T06:40:11.180Z,999.99
2019-03-10T06:41:11.153Z,999.96
2019-03-10T06:42:11.146Z,999.89
2019-03-10T06:43:11.132Z,999.90
2019-03-10T06:44:11.128Z,999.92
2019-03-10T06:45:11.127Z,999.88
2019-03-10T06:46:11.101Z,999.86
2019-03-10T06:47:11.114Z,999.87
2019-03-10T06:48:11.097Z,999.76
2019-03-10T06:49:11.066Z,999.74
2019-03-10T06:50:12.370Z,999.75
2019-03-10T06:51:11.057Z,999.85
2019-03-10T06:52:11.046Z,999.71
2019-03-10T06:53:11.059Z,999.84
2019-03-10T06:54:11.012Z,999.80
2019-03-10T06:55:11.001Z,999.81
2019-03-10T06:56:10.991Z,999.73
2019-03-10T06:57:10.984Z,999.77
2019-03-10T06:58:10.983Z,999.76
2019-03-10T06:59:10.964Z,999.73
2019-03-10T07:00:10.953Z,999.69
2019-03-10T07:01:10.939Z,999.62
2019-03-10T07:02:10.925Z,999.70
2019-03-10T07:03:10.922Z,999.64
2019-03-10T07:04:10.901Z,999.66
2019-03-10T07:05:10.928Z,999.73
2019-03-10T07:06:10.885Z,999.71
2019-03-10T07:07:10.876Z,999.72
2019-03-10T07:08:10.856Z,999.74
2019-03-10T07:09:10.854Z,999.68
2019-03-10T07:10:10.854Z,999.67
2019-03-10T07:11:10.851Z,999.69
2019-03-10T07:12:10.819Z,999.59
2019-03-10T07:13:10.810Z,999.59
2019-03-10T07:14:10.795Z,999.62
2019-03-10T07:15:10.777Z,999.63
2019-03-10T07:16:10.775Z,999.60
2019-03-10T07:17:10.832Z,999.59
2019-03-10T07:18:11.013Z,999.61
2019-03-10T07:19:10.733Z,999.58
2019-03-10T07:20:10.760Z,999.53
2019-03-10T07:21:10.719Z,999.54
2019-03-10T07:22:10.704Z,999.45
2019-03-10T07:23:10.725Z,999.46
2019-03-10T07:24:10.682Z,999.47
2019-03-10T07:25:10.673Z,999.45
2019-03-10T07:26:10.654Z,999.50
2019-03-10T07:27:10.648Z,999.47
2019-03-10T07:28:10.640Z,999.52
2019-03-10T07:29:10.644Z,999.46
2019-03-10T07:30:10.614Z,999.54
2019-03-10T07:31:10.613Z,999.51
2019-03-10T07:32:10.588Z,999.51
2019-03-10T07:33:10.581Z,999.44
2019-03-10T07:34:10.586Z,999.40
2019-03-10T07:35:10.553Z,999.33
2019-03-10T07:36:10.544Z,999.38
2019-03-10T07:37:10.544Z,999.38
2019-03-10T07:38:10.521Z,999.42
2019-03-10T07:39:10.527Z,999.44
2019-03-10T07:40:10.497Z,999.36
2019-03-10T07:41:10.492Z,999.33
2019-03-10T07:42:10.485Z,999.38
2019-03-10T07:43:10.467Z,999.29
2019-03-10T07:44:10.470Z,999.33
2019-03-10T07:45:10.455Z,999.32
2019-03-10T07:46:10.445Z,999.31
2019-03-10T07:47:10.463Z,999.34
2019-03-10T07:48:10.410Z,999.32
2019-03-10T07:49:10.407Z,999.33
2019-03-10T07:50:10.399Z,999.29
2019-03-10T07:51:10.384Z,999.30
2019-03-10T07:52:19.785Z,999.26
2019-03-10T07:53:11.361Z,999.23
2019-03-10T07:54:10.344Z,999.26
2019-03-10T07:55:10.398Z,999.18
2019-03-10T07:56:11.466Z,999.20
2019-03-10T07:57:10.327Z,999.25
2019-03-10T07:58:10.307Z,999.25
2019-03-10T07:59:10.293Z,999.24
2019-03-10T08:00:10.285Z,999.24
2019-03-10T08:01:10.321Z,999.24
2019-03-10T08:02:10.257Z,999.22
2019-03-10T08:03:10.251Z,999.19
2019-03-10T08:04:10.248Z,999.11
2019-03-10T08:05:10.232Z,999.10
2019-03-10T08:06:10.219Z,999.06
2019-03-10T08:07:10.247Z,999.06
2019-03-10T08:08:10.194Z,998.97
2019-03-10T08:09:10.179Z,998.99
2019-03-10T08:10:10.173Z,998.99
2019-03-10T08:11:10.157Z,998.92
2019-03-10T08:12:10.148Z,998.91
2019-03-10T08:13:10.155Z,998.87
2019-03-10T08:14:10.127Z,998.90
2019-03-10T08:15:10.121Z,998.92
2019-03-10T08:16:10.105Z,998.95
2019-03-10T08:17:10.091Z,998.92
2019-03-10T08:18:10.195Z,998.78
2019-03-10T08:19:10.076Z,998.89
2019-03-10T08:20:10.069Z,998.83
2019-03-10T08:21:10.047Z,998.86
2019-03-10T08:22:10.050Z,998.80
2019-03-10T08:23:10.026Z,998.77
2019-03-10T08:24:10.024Z,998.71
2019-03-10T08:25:10.009Z,998.76
2019-03-10T08:26:09.993Z,998.69
2019-03-10T08:27:09.987Z,998.58
2019-03-10T08:28:09.976Z,998.63
2019-03-10T08:29:09.976Z,998.60
2019-03-10T08:30:09.949Z,998.57
2019-03-10T08:31:09.940Z,998.53
2019-03-10T08:32:09.934Z,998.54
2019-03-10T08:33:09.918Z,998.55
2019-03-10T08:34:09.940Z,998.43
2019-03-10T08:35:09.905Z,998.48
2019-03-10T08:36:09.882Z,998.43
2019-03-10T08:37:09.879Z,998.43
2019-03-10T08:38:09.860Z,998.44
2019-03-10T08:39:09.862Z,998.45
2019-03-10T08:40:09.854Z,998.43
2019-03-10T08:41:09.831Z,998.33
2019-03-10T08:42:19.440Z,998.38
2019-03-10T08:43:10.809Z,998.27
2019-03-10T08:44:09.794Z,998.26
2019-03-10T08:45:09.816Z,998.24
2019-03-10T08:46:09.782Z,998.19
2019-03-10T08:47:09.761Z,998.23
2019-03-10T08:48:09.751Z,998.16
2019-03-10T08:49:09.745Z,998.10
2019-03-10T08:50:09.791Z,998.16
2019-03-10T08:51:09.717Z,998.17
2019-03-10T08:52:09.708Z,998.09
2019-03-10T08:53:09.702Z,998.15
2019-03-10T08:54:09.688Z,998.11
2019-03-10T08:55:09.675Z,998.17
2019-03-10T08:56:09.682Z,998.15
2019-03-10T08:57:09.652Z,998.12
2019-03-10T08:58:09.657Z,998.12
2019-03-10T08:59:09.631Z,998.11
2019-03-10T09:00:09.621Z,998.17
2019-03-10T09:01:10.295Z,998.14
2019-03-10T09:02:09.599Z,998.10
2019-03-10T09:03:09.587Z,998.04
2019-03-10T09:04:09.578Z,998.10
2019-03-10T09:05:09.571Z,998.03
2019-03-10T09:06:09.578Z,998.04
2019-03-10T09:07:09.550Z,998.04
2019-03-10T09:08:09.546Z,997.98
2019-03-10T09:09:09.523Z,998.04
2019-03-10T09:10:09.515Z,997.99
2019-03-10T09:11:09.506Z,997.93
2019-03-10T09:12:09.567Z,997.99
2019-03-10T09:13:09.485Z,997.97
2019-03-10T09:14:09.486Z,997.98
2019-03-10T09:15:09.470Z,997.91
2019-03-10T09:16:09.499Z,997.86
2019-03-10T09:17:09.480Z,997.86
2019-03-10T09:18:09.435Z,997.84
2019-03-10T09:19:09.428Z,997.85
2019-03-10T09:20:09.406Z,997.82
2019-03-10T09:21:09.411Z,997.88
2019-03-10T09:22:09.388Z,997.81
2019-03-10T09:23:09.386Z,997.80
2019-03-10T09:24:09.369Z,997.79
2019-03-10T09:25:09.352Z,997.70
2019-03-10T09:26:09.342Z,997.61
2019-03-10T09:27:09.338Z,997.59
2019-03-10T09:28:09.327Z,997.57
2019-03-10T09:29:09.324Z,997.52
2019-03-10T09:30:09.303Z,997.63
2019-03-10T09:31:09.369Z,997.51
2019-03-10T09:32:09.281Z,997.48
2019-03-10T09:33:09.269Z,997.47
2019-03-10T09:34:09.267Z,997.46
2019-03-10T09:35:09.248Z,997.43
2019-03-10T09:36:09.239Z,997.41
2019-03-10T09:37:09.223Z,997.44
2019-03-10T09:38:09.294Z,997.41
2019-03-10T09:39:09.243Z,997.38
2019-03-10T09:40:09.186Z,997.37
2019-03-10T09:41:09.174Z,997.32
2019-03-10T09:42:09.167Z,997.28
2019-03-10T09:43:09.153Z,997.35
2019-03-10T09:44:09.149Z,997.31
2019-03-10T09:45:09.146Z,997.30
2019-03-10T09:46:09.118Z,997.29
2019-03-10T09:47:09.125Z,997.26
2019-03-10T09:48:09.102Z,997.24
2019-03-10T09:49:09.090Z,997.22
2019-03-10T09:50:09.084Z,997.24
2019-03-10T09:51:09.106Z,997.14
2019-03-10T09:52:09.050Z,997.12
2019-03-10T09:53:09.051Z,997.07
2019-03-10T09:54:09.033Z,997.03
2019-03-10T09:55:09.016Z,997.06
2019-03-10T09:56:09.005Z,997.00
2019-03-10T09:57:09.014Z,997.06
2019-03-10T09:58:08.988Z,997.02
2019-03-10T09:59:08.977Z,997.03
2019-03-10T10:00:08.976Z,997.02
2019-03-10T10:01:08.970Z,997.04
2019-03-10T10:02:08.946Z,996.98
2019-03-10T10:03:08.934Z,997.03
2019-03-10T10:04:08.926Z,996.93
2019-03-10T10:05:08.909Z,996.88
2019-03-10T10:06:08.956Z,996.89
2019-03-10T10:07:08.924Z,996.94
2019-03-10T10:08:08.879Z,996.91
2019-03-10T10:09:08.865Z,996.84
2019-03-10T10:10:08.858Z,996.84
2019-03-10T10:11:08.842Z,996.80
2019-03-10T10:12:13.339Z,996.73
2019-03-10T10:13:09.824Z,996.73
2019-03-10T10:14:08.816Z,996.68
2019-03-10T10:15:08.802Z,996.63
2019-03-10T10:16:08.788Z,996.62
2019-03-10T10:17:08.814Z,996.61
2019-03-10T10:18:08.767Z,996.62
2019-03-10T10:19:08.762Z,996.60
2019-03-10T10:20:08.763Z,996.59
2019-03-10T10:21:08.740Z,996.52
2019-03-10T10:22:08.723Z,996.58
2019-03-10T10:23:08.724Z,996.59
2019-03-10T10:24:08.733Z,996.47
2019-03-10T10:25:08.693Z,996.49
2019-03-10T10:26:10.922Z,996.45
2019-03-10T10:27:08.697Z,996.44
2019-03-10T10:28:08.670Z,996.50
2019-03-10T10:29:08.647Z,996.45
2019-03-10T10:30:08.739Z,996.41
2019-03-10T10:31:08.625Z,996.38
2019-03-10T10:32:08.622Z,996.38
2019-03-10T10:33:08.664Z,996.41
2019-03-10T10:34:08.597Z,996.31
2019-03-10T10:35:08.586Z,996.29
2019-03-10T10:36:08.622Z,996.24
2019-03-10T10:37:08.563Z,996.21
2019-03-10T10:38:18.173Z,996.31
2019-03-10T10:39:09.567Z,996.15
2019-03-10T10:40:08.534Z,996.23
2019-03-10T10:41:08.519Z,996.18
2019-03-10T10:42:08.528Z,996.15
2019-03-10T10:43:08.534Z,996.08
2019-03-10T10:44:08.482Z,996.04
2019-03-10T10:45:08.472Z,996.07
2019-03-10T10:46:08.463Z,996.09
2019-03-10T10:47:08.449Z,996.06
2019-03-10T10:48:08.456Z,996.10
2019-03-10T10:49:08.433Z,995.97
2019-03-10T10:50:08.456Z,996.05
2019-03-10T10:51:08.413Z,996.04
2019-03-10T10:52:08.408Z,995.98
2019-03-10T10:53:08.468Z,996.03
2019-03-10T10:54:08.377Z,995.98
2019-03-10T10:55:08.369Z,996.02
2019-03-10T10:56:08.387Z,996.02
2019-03-10T10:57:08.354Z,995.92
2019-03-10T10:58:08.336Z,995.93
2019-03-10T10:59:08.328Z,995.87
2019-03-10T11:00:08.308Z,995.97
2019-03-10T11:01:10.014Z,995.86
2019-03-10T11:02:08.292Z,995.90
2019-03-10T11:03:08.283Z,995.83
2019-03-10T11:04:08.294Z,995.92
2019-03-10T11:05:08.265Z,995.89
2019-03-10T11:06:08.244Z,995.88
2019-03-10T11:07:08.245Z,995.86
2019-03-10T11:08:08.224Z,995.87
2019-03-10T11:09:08.228Z,995.86
2019-03-10T11:10:08.227Z,995.87
2019-03-10T11:11:08.185Z,995.85
2019-03-10T11:12:08.182Z,995.81
2019-03-10T11:13:08.174Z,995.80
2019-03-10T11:14:08.153Z,995.75
2019-03-10T11:15:08.145Z,995.83
2019-03-10T11:16:08.145Z,995.77
2019-03-10T11:17:08.124Z,995.68
2019-03-10T11:18:09.688Z,995.63
2019-03-10T11:19:08.118Z,995.54
2019-03-10T11:20:08.093Z,995.53
2019-03-10T11:21:08.113Z,995.56
2019-03-10T11:22:08.067Z,995.51
2019-03-10T11:23:08.060Z,995.49
2019-03-10T11:24:08.048Z,995.49
2019-03-10T11:25:08.040Z,995.46
2019-03-10T11:26:08.623Z,995.44
2019-03-10T11:27:08.047Z,995.42
2019-03-10T11:28:08.003Z,995.36
2019-03-10T11:29:07.994Z,995.30
2019-03-10T11:30:07.989Z,995.31
2019-03-10T11:31:07.968Z,995.24
2019-03-10T11:32:07.972Z,995.29
2019-03-10T11:33:07.958Z,995.34
2019-03-10T11:34:07.939Z,995.32
2019-03-10T11:35:07.923Z,995.32
2019-03-10T11:36:07.922Z,995.37
2019-03-10T11:37:07.906Z,995.30
2019-03-10T11:38:07.906Z,995.24
2019-03-10T11:39:07.896Z,995.21
2019-03-10T11:40:07.877Z,995.23
2019-03-10T11:41:07.878Z,995.22
2019-03-10T11:42:07.858Z,995.31
2019-03-10T11:43:07.841Z,995.31
2019-03-10T11:44:07.881Z,995.32
2019-03-10T11:45:07.843Z,995.22
2019-03-10T11:46:07.805Z,995.22
2019-03-10T11:47:07.793Z,995.15
2019-03-10T11:48:07.782Z,995.18
2019-03-10T11:49:07.777Z,995.17
2019-03-10T11:50:07.772Z,995.23
2019-03-10T11:51:07.750Z,995.24
2019-03-10T11:52:07.738Z,995.19
2019-03-10T11:53:18.254Z,995.23
2019-03-10T11:54:08.728Z,995.17
2019-03-10T11:55:07.784Z,995.18
2019-03-10T11:56:07.694Z,995.17
2019-03-10T11:57:07.688Z,995.14
2019-03-10T11:58:07.676Z,995.12
2019-03-10T11:59:07.668Z,995.05
2019-03-10T12:00:07.663Z,995.05
2019-03-10T12:01:07.647Z,995.02
2019-03-10T12:02:15.610Z,995.00
2019-03-10T12:03:08.661Z,994.96
2019-03-10T12:04:07.607Z,994.96
2019-03-10T12:05:07.709Z,994.96
2019-03-10T12:06:07.662Z,994.84
2019-03-10T12:07:07.724Z,994.81
2019-03-10T12:08:07.659Z,994.84
2019-03-10T12:09:07.600Z,994.79
2019-03-10T12:10:07.639Z,994.68
2019-03-10T12:11:07.678Z,994.66
2019-03-10T12:12:07.559Z,994.62
2019-03-10T12:13:07.513Z,994.60
2019-03-10T12:14:07.602Z,994.58
2019-03-10T12:15:07.516Z,994.59
2019-03-10T12:16:07.497Z,994.51